createdAt,value
2023-04-15T00:02:33.231Z,47.33
2023-04-15T00:05:10.901Z,47.07
2023-04-15T00:07:48.036Z,46.89
2023-04-15T00:10:27.226Z,47.12
2023-04-15T00:13:13.812Z,46.96
2023-04-15T00:16:00.203Z,46.78
2023-04-15T00:18:27.796Z,46.72
2023-04-15T00:20:58.514Z,46.68
2023-04-15T00:23:28.809Z,46.46
2023-04-15T00:25:58.626Z,46.59
2023-04-15T00:28:29.471Z,46.68
2023-04-15T00:31:01.231Z,46.47
2023-04-15T00:33:29.281Z,46.54
2023-04-15T00:36:10.772Z,46.53
2023-04-15T00:38:47.581Z,46.22
2023-04-15T00:41:28.301Z,46.63
2023-04-15T00:44:01.367Z,46.59
2023-04-15T00:46:39.798Z,46.61
2023-04-15T00:49:12.537Z,46.33
2023-04-15T00:51:58.129Z,47.06
2023-04-15T00:54:26.905Z,46.43
2023-04-15T00:57:03.471Z,46.73
2023-04-15T00:59:42.505Z,47.03
2023-04-15T01:02:25.876Z,47.02
2023-04-15T01:04:54.588Z,47.37
2023-04-15T01:07:23.373Z,47.21
2023-04-15T01:09:57.934Z,47.36
2023-04-15T01:12:27.429Z,47.29
2023-04-15T01:14:57.268Z,47.96
2023-04-15T01:17:27.894Z,47.92
2023-04-15T01:20:01.830Z,47.63
2023-04-15T01:22:31.813Z,48.08
2023-04-15T01:25:10.208Z,48.40
2023-04-15T01:27:44.392Z,48.37
2023-04-15T01:30:11.877Z,48.08
2023-04-15T01:32:42.005Z,48.36
2023-04-15T01:35:10.166Z,48.16
2023-04-15T01:37:40.113Z,48.07
2023-04-15T01:40:08.276Z,47.57
2023-04-15T01:42:37.709Z,47.81
2023-04-15T01:45:07.385Z,47.65
2023-04-15T01:47:37.517Z,47.48
2023-04-15T01:50:11.034Z,47.31
2023-04-15T01:52:41.930Z,47.61
2023-04-15T01:55:15.029Z,47.76
2023-04-15T01:57:52.138Z,47.38
2023-04-15T02:00:19.530Z,47.34
2023-04-15T02:02:47.006Z,46.92
2023-04-15T02:05:14.998Z,47.05
2023-04-15T02:07:47.746Z,47.45
2023-04-15T02:10:16.852Z,47.57
2023-04-15T02:12:45.233Z,47.57
2023-04-15T02:15:12.678Z,47.29
2023-04-15T02:17:40.095Z,47.32
2023-04-15T02:20:09.656Z,47.37
2023-04-15T02:22:37.121Z,47.21
2023-04-15T02:25:04.725Z,47.25
2023-04-15T02:27:33.200Z,47.36
2023-04-15T02:30:00.937Z,47.38
2023-04-15T02:32:29.392Z,47.17
2023-04-15T02:34:56.996Z,47.14
2023-04-15T02:37:27.521Z,47.23
2023-04-15T02:39:57.383Z,47.25
2023-04-15T02:42:27.972Z,47.09
2023-04-15T02:44:55.714Z,47.21
2023-04-15T02:47:28.550Z,47.41
2023-04-15T02:49:58.821Z,47.25
2023-04-15T02:52:26.511Z,47.20
2023-04-15T02:54:57.627Z,47.12
2023-04-15T02:57:25.092Z,47.03
2023-04-15T03:00:21.457Z,47.13
2023-04-15T03:02:56.853Z,47.00
2023-04-15T03:05:25.682Z,46.95
2023-04-15T03:07:53.035Z,46.81
2023-04-15T03:10:21.796Z,46.81
2023-04-15T03:12:48.976Z,46.77
2023-04-15T03:15:21.775Z,46.82
2023-04-15T03:17:52.130Z,46.86
2023-04-15T03:20:19.946Z,46.70
2023-04-15T03:22:48.538Z,46.74
2023-04-15T03:25:16.008Z,46.74
2023-04-15T03:27:43.546Z,46.78
2023-04-15T03:30:12.611Z,46.69
2023-04-15T03:32:41.045Z,46.82
2023-04-15T03:35:12.346Z,46.76
2023-04-15T03:37:42.195Z,46.79
2023-04-15T03:40:13.018Z,46.88
2023-04-15T03:42:42.832Z,47.14
2023-04-15T03:45:13.422Z,46.78
2023-04-15T03:47:43.358Z,47.13
2023-04-15T03:50:18.014Z,46.86
2023-04-15T03:52:45.932Z,47.29
2023-04-15T03:55:13.559Z,46.97
2023-04-15T03:57:40.715Z,46.99
2023-04-15T04:00:14.497Z,47.06
2023-04-15T04:02:49.724Z,47.05
2023-04-15T04:05:20.346Z,46.78
2023-04-15T04:07:47.996Z,46.77
2023-04-15T04:10:15.177Z,46.87
2023-04-15T04:12:42.510Z,46.75
2023-04-15T04:15:10.184Z,46.90
2023-04-15T04:17:37.550Z,46.72
2023-04-15T04:20:05.903Z,46.63
2023-04-15T04:22:40.900Z,46.73
2023-04-15T04:25:08.960Z,46.52
2023-04-15T04:27:36.642Z,45.97
2023-04-15T04:32:52.879Z,45.91
2023-04-15T04:35:24.836Z,45.43
2023-04-15T04:37:58.039Z,45.38
2023-04-15T04:40:25.349Z,44.76
2023-04-15T04:42:55.654Z,44.94
2023-04-15T04:45:22.933Z,44.53
2023-04-15T04:47:56.108Z,44.43
2023-04-15T04:50:26.279Z,44.23
2023-04-15T04:52:56.186Z,43.96
2023-04-15T04:55:23.461Z,43.74
2023-04-15T04:57:56.134Z,43.61
2023-04-15T05:00:28.807Z,43.39
2023-04-15T05:02:59.435Z,42.93
2023-04-15T05:05:27.313Z,42.91
2023-04-15T05:07:56.847Z,42.69
2023-04-15T05:10:24.161Z,43.51
2023-04-15T05:12:54.668Z,43.15
2023-04-15T05:15:21.950Z,42.91
2023-04-15T05:17:51.187Z,42.44
2023-04-15T05:20:18.449Z,42.15
2023-04-15T05:22:54.291Z,42.43
2023-04-15T05:25:22.701Z,42.58
2023-04-15T05:27:50.321Z,42.22
2023-04-15T05:30:17.953Z,41.34
2023-04-15T05:32:45.253Z,41.20
2023-04-15T05:35:19.373Z,40.59
2023-04-15T05:37:57.758Z,40.57
2023-04-15T05:40:31.995Z,40.49
2023-04-15T05:43:04.268Z,40.34
2023-04-15T05:45:47.316Z,39.94
2023-04-15T05:48:23.610Z,39.78
2023-04-15T05:51:02.205Z,39.42
2023-04-15T05:53:33.094Z,39.86
2023-04-15T05:56:01.227Z,40.20
2023-04-15T05:58:30.340Z,39.79
2023-04-15T06:01:10.102Z,40.24
2023-04-15T06:03:40.125Z,40.03
2023-04-15T06:06:08.052Z,40.01
2023-04-15T06:08:37.497Z,40.08
2023-04-15T06:11:08.119Z,39.87
2023-04-15T06:13:41.770Z,40.12
2023-04-15T06:16:17.427Z,40.32
2023-04-15T06:18:44.813Z,40.92
2023-04-15T06:21:12.253Z,41.54
2023-04-15T06:23:43.672Z,42.08
2023-04-15T06:26:11.784Z,42.21
2023-04-15T06:28:46.692Z,42.48
2023-04-15T06:31:15.843Z,42.40
2023-04-15T06:33:46.133Z,43.38
2023-04-15T06:36:16.920Z,43.95
2023-04-15T06:38:54.522Z,43.66
2023-04-15T06:41:22.217Z,43.53
2023-04-15T06:43:55.610Z,43.59
2023-04-15T06:46:26.090Z,43.54
2023-04-15T06:48:56.125Z,43.46
2023-04-15T06:51:26.182Z,43.01
2023-04-15T06:54:01.633Z,43.64
2023-04-15T06:56:30.883Z,42.92
2023-04-15T06:58:58.700Z,43.12
2023-04-15T07:01:31.791Z,43.31
2023-04-15T07:03:59.524Z,43.04
2023-04-15T07:06:30.172Z,42.54
2023-04-15T07:09:06.334Z,42.41
2023-04-15T07:11:33.858Z,42.74
2023-04-15T07:14:10.317Z,42.69
2023-04-15T07:16:40.499Z,42.94
2023-04-15T07:19:07.836Z,43.08
2023-04-15T07:21:35.065Z,42.60
2023-04-15T07:24:11.421Z,42.62
2023-04-15T07:26:43.539Z,42.98
2023-04-15T07:29:11.041Z,42.28
2023-04-15T07:31:42.505Z,41.98
2023-04-15T07:34:13.400Z,42.18
2023-04-15T07:36:43.881Z,41.68
2023-04-15T07:39:11.284Z,41.65
2023-04-15T07:41:52.508Z,41.53
2023-04-15T07:44:22.682Z,40.58
2023-04-15T07:46:56.900Z,39.34
2023-04-15T07:49:34.453Z,39.73
2023-04-15T07:52:04.648Z,39.63
2023-04-15T07:54:33.879Z,40.39
2023-04-15T07:57:01.734Z,40.84
2023-04-15T07:59:31.456Z,40.47
2023-04-15T08:02:02.072Z,40.46
2023-04-15T08:04:34.869Z,39.23
2023-04-15T08:07:05.366Z,38.79
2023-04-15T08:09:34.255Z,38.21
2023-04-15T08:12:01.614Z,36.64
2023-04-15T08:14:37.994Z,35.70
2023-04-15T08:17:05.933Z,36.58
2023-04-15T08:19:33.921Z,34.73
2023-04-15T08:22:10.833Z,35.28
2023-04-15T08:24:45.449Z,34.46
2023-04-15T08:27:17.822Z,33.62
2023-04-15T08:29:51.592Z,33.08
2023-04-15T08:32:21.748Z,32.96
2023-04-15T08:34:51.957Z,32.97
2023-04-15T08:37:19.358Z,32.56
2023-04-15T08:39:46.663Z,32.06
2023-04-15T08:42:18.736Z,31.42
2023-04-15T08:44:48.653Z,29.95
2023-04-15T08:47:21.092Z,30.20
2023-04-15T08:49:54.355Z,30.62
2023-04-15T08:52:26.810Z,29.31
2023-04-15T08:55:02.639Z,28.81
2023-04-15T08:57:38.561Z,29.09
2023-04-15T09:00:19.420Z,29.03
2023-04-15T09:02:57.171Z,29.12
2023-04-15T09:05:26.422Z,28.86
2023-04-15T09:07:54.931Z,29.11
2023-04-15T09:10:22.813Z,29.02
2023-04-15T09:12:50.428Z,27.82
2023-04-15T09:15:20.484Z,28.37
2023-04-15T09:17:48.983Z,27.75
2023-04-15T09:20:24.181Z,27.48
2023-04-15T09:22:52.600Z,27.89
2023-04-15T09:25:35.056Z,26.70
2023-04-15T09:28:03.527Z,27.18
2023-04-15T09:30:38.324Z,26.64
2023-04-15T09:33:08.902Z,26.86
2023-04-15T09:35:37.269Z,27.03
2023-04-15T09:38:12.447Z,26.69
2023-04-15T09:40:44.265Z,27.70
2023-04-15T09:43:19.813Z,26.90
2023-04-15T09:45:56.363Z,26.68
2023-04-15T09:48:31.322Z,26.49
2023-04-15T09:51:02.707Z,26.49
2023-04-15T09:53:44.568Z,26.28
2023-04-15T09:56:13.116Z,25.76
2023-04-15T09:59:10.619Z,26.27
2023-04-15T10:02:00.724Z,25.84
2023-04-15T10:04:40.222Z,25.45
2023-04-15T10:07:18.603Z,25.33
2023-04-15T10:09:52.449Z,25.75
2023-04-15T10:15:39.533Z,24.91
2023-04-15T10:18:26.408Z,24.81
2023-04-15T10:21:06.856Z,26.69
2023-04-15T10:26:50.817Z,27.93
2023-04-15T10:29:35.094Z,29.06
2023-04-15T10:32:11.017Z,30.16
2023-04-15T10:34:44.458Z,32.33
2023-04-15T10:37:39.270Z,34.83
2023-04-15T10:40:31.960Z,34.08
2023-04-15T10:43:20.022Z,32.88
2023-04-15T10:46:04.310Z,32.74
2023-04-15T10:49:07.045Z,32.43
2023-04-15T10:52:01.872Z,31.97
2023-04-15T10:54:36.589Z,31.54
2023-04-15T10:57:12.495Z,31.81
2023-04-15T11:00:13.353Z,32.02
2023-04-15T11:03:11.725Z,30.93
2023-04-15T11:05:41.916Z,31.27
2023-04-15T11:08:13.323Z,30.60
2023-04-15T11:10:48.252Z,30.42
2023-04-15T11:13:32.688Z,29.84
2023-04-15T11:16:05.908Z,29.52
2023-04-15T11:18:56.196Z,29.16
2023-04-15T11:22:03.014Z,28.52
2023-04-15T11:24:54.015Z,28.50
2023-04-15T11:27:41.210Z,27.83
2023-04-15T11:30:44.768Z,28.13
2023-04-15T11:33:15.256Z,27.85
2023-04-15T11:35:55.288Z,27.86
2023-04-15T11:38:46.298Z,28.11
2023-04-15T11:41:32.526Z,27.55
2023-04-15T11:44:17.199Z,28.37
2023-04-15T11:47:32.404Z,27.66
2023-04-15T11:50:21.342Z,27.27
2023-04-15T11:53:09.232Z,28.14
2023-04-15T11:55:54.290Z,28.45
2023-04-15T11:58:38.698Z,28.67
2023-04-15T12:01:21.804Z,29.48
2023-04-15T12:04:13.649Z,28.76
2023-04-15T12:06:43.993Z,28.59
2023-04-15T12:12:12.663Z,27.61
2023-04-15T12:14:51.832Z,26.66
2023-04-15T12:17:31.934Z,26.68
2023-04-15T12:20:50.629Z,26.38
2023-04-15T12:23:37.446Z,26.26
2023-04-15T12:26:13.736Z,25.83
2023-04-15T12:28:47.165Z,25.09
2023-04-15T12:31:43.267Z,25.29
2023-04-15T12:34:15.180Z,25.27
2023-04-15T12:36:51.245Z,25.23
2023-04-15T12:39:40.965Z,25.82
2023-04-15T12:45:15.481Z,26.01
2023-04-15T12:48:09.069Z,25.66
2023-04-15T12:50:45.412Z,26.08
2023-04-15T12:53:21.730Z,26.36
2023-04-15T12:55:54.052Z,26.00
2023-04-15T13:01:10.872Z,25.23
2023-04-15T13:03:52.432Z,25.45
2023-04-15T13:06:21.850Z,24.66
2023-04-15T13:08:58.291Z,24.37
2023-04-15T13:11:36.227Z,24.24
2023-04-15T13:14:18.225Z,24.17
2023-04-15T13:16:45.891Z,24.73
2023-04-15T13:19:14.431Z,24.33
2023-04-15T13:22:05.738Z,24.32
2023-04-15T13:24:33.346Z,23.90
2023-04-15T13:27:08.652Z,24.21
2023-04-15T13:29:47.350Z,24.28
2023-04-15T13:32:20.908Z,24.04
2023-04-15T13:34:51.434Z,25.59
2023-04-15T13:37:31.815Z,26.12
2023-04-15T13:39:59.174Z,26.36
2023-04-15T13:42:31.997Z,27.43
2023-04-15T13:45:02.282Z,28.22
2023-04-15T13:47:34.524Z,28.11
2023-04-15T13:50:05.991Z,28.42
2023-04-15T13:52:41.055Z,29.46
2023-04-15T13:55:20.625Z,29.53
2023-04-15T14:00:49.030Z,31.42
2023-04-15T14:03:26.635Z,32.16
2023-04-15T14:06:05.726Z,33.42
2023-04-15T14:08:47.195Z,33.96
2023-04-15T14:11:14.527Z,34.05
2023-04-15T14:13:53.956Z,34.72
2023-04-15T14:16:27.296Z,34.47
2023-04-15T14:19:03.215Z,35.96
2023-04-15T14:21:46.137Z,37.66
2023-04-15T14:27:28.877Z,38.69
2023-04-15T14:29:59.285Z,39.02
2023-04-15T14:32:57.464Z,40.15
2023-04-15T14:35:30.677Z,42.46
2023-04-15T14:38:04.697Z,42.00
2023-04-15T14:40:45.028Z,44.50
2023-04-15T14:43:15.314Z,43.69
2023-04-15T14:45:51.905Z,44.50
2023-04-15T14:48:32.386Z,44.56
2023-04-15T14:51:07.135Z,44.05
2023-04-15T14:53:45.761Z,46.26
2023-04-15T14:56:19.980Z,45.06
2023-04-15T14:58:53.247Z,45.19
2023-04-15T15:01:33.640Z,45.72
2023-04-15T15:04:07.294Z,47.23
2023-04-15T15:06:35.123Z,46.11
2023-04-15T15:09:04.556Z,44.73
2023-04-15T15:11:36.961Z,44.46
2023-04-15T15:14:04.227Z,44.25
2023-04-15T15:16:37.582Z,44.31
2023-04-15T15:19:05.373Z,43.33
2023-04-15T15:21:32.713Z,43.89
2023-04-15T15:23:59.965Z,43.53
2023-04-15T15:26:31.026Z,43.18
2023-04-15T15:28:58.837Z,43.49
2023-04-15T15:31:33.992Z,43.04
2023-04-15T15:34:01.441Z,43.81
2023-04-15T15:36:34.984Z,44.29
2023-04-15T15:39:14.470Z,43.68
2023-04-15T15:41:41.890Z,43.37
2023-04-15T15:44:09.273Z,43.79
2023-04-15T15:46:37.850Z,44.29
2023-04-15T15:49:13.421Z,44.37
2023-04-15T15:54:41.362Z,45.01
2023-04-15T15:57:08.833Z,44.31
2023-04-15T16:05:25.456Z,44.36
2023-04-15T16:07:57.365Z,45.05
2023-04-15T16:10:27.851Z,44.67
2023-04-15T16:13:08.856Z,44.89
2023-04-15T16:15:42.806Z,44.99
2023-04-15T16:18:22.788Z,45.33
2023-04-15T16:20:58.610Z,44.92
2023-04-15T16:23:41.836Z,44.80
2023-04-15T16:26:42.807Z,43.63
2023-04-15T16:29:16.819Z,43.48
2023-04-15T16:31:58.746Z,43.60
2023-04-15T16:34:50.651Z,44.03
2023-04-15T16:37:22.582Z,43.86
2023-04-15T16:40:00.005Z,44.72
2023-04-15T16:42:38.319Z,44.10
2023-04-15T16:45:12.822Z,43.70
2023-04-15T16:47:46.677Z,43.42
2023-04-15T16:50:16.571Z,44.19
2023-04-15T16:52:47.536Z,44.14
2023-04-15T16:55:15.910Z,43.75
2023-04-15T16:58:01.415Z,44.73
2023-04-15T17:00:36.525Z,43.98
2023-04-15T17:03:09.774Z,44.93
2023-04-15T17:05:40.111Z,44.39
2023-04-15T17:08:10.919Z,44.79
2023-04-15T17:10:41.883Z,44.23
2023-04-15T17:13:11.658Z,44.28
2023-04-15T17:15:42.393Z,44.84
2023-04-15T17:18:18.724Z,43.70
2023-04-15T17:20:52.152Z,43.95
2023-04-15T17:23:36.384Z,44.40
2023-04-15T17:26:48.709Z,44.76
2023-04-15T17:29:43.392Z,45.03
2023-04-15T17:32:23.493Z,44.43
2023-04-15T17:37:55.854Z,45.65
2023-04-15T17:40:23.350Z,45.62
2023-04-15T17:42:59.189Z,46.18
2023-04-15T17:45:29.065Z,45.49
2023-04-15T17:48:07.693Z,45.50
2023-04-15T17:50:42.703Z,45.77
2023-04-15T17:53:12.846Z,45.70
2023-04-15T17:55:42.904Z,45.85
2023-04-15T17:58:10.176Z,45.61
2023-04-15T18:00:40.335Z,45.36
2023-04-15T18:05:48.710Z,44.74
2023-04-15T18:08:16.130Z,44.50
2023-04-15T18:10:45.827Z,44.79
2023-04-15T18:13:15.337Z,44.87
2023-04-15T18:15:51.110Z,45.77
2023-04-15T18:18:24.564Z,45.34
2023-04-15T18:20:54.578Z,45.06
2023-04-15T18:23:29.227Z,46.32
2023-04-15T18:26:16.054Z,45.32
2023-04-15T18:28:43.397Z,45.48
2023-04-15T18:31:24.277Z,45.52
2023-04-15T18:33:51.414Z,44.69
2023-04-15T18:36:21.073Z,45.32
2023-04-15T18:38:48.318Z,44.73
2023-04-15T18:41:15.701Z,44.39
2023-04-15T18:43:47.366Z,44.07
2023-04-15T18:46:23.860Z,44.34
2023-04-15T18:48:56.438Z,44.22
2023-04-15T18:54:08.422Z,44.39
2023-04-15T18:56:41.282Z,44.34
2023-04-15T18:59:29.615Z,44.19
2023-04-15T19:02:01.551Z,44.74
2023-04-15T19:04:31.185Z,44.55
2023-04-15T19:06:59.388Z,45.01
2023-04-15T19:09:29.910Z,44.01
2023-04-15T19:11:59.711Z,44.46
2023-04-15T19:14:37.754Z,44.30
2023-04-15T19:17:05.505Z,44.36
2023-04-15T19:19:33.574Z,44.05
2023-04-15T19:22:07.192Z,44.27
2023-04-15T19:24:38.423Z,44.46
2023-04-15T19:27:13.783Z,46.62
2023-04-15T19:29:44.123Z,45.34
2023-04-15T19:32:11.538Z,45.58
2023-04-15T19:34:41.647Z,45.23
2023-04-15T19:37:08.910Z,45.17
2023-04-15T19:39:38.856Z,45.56
2023-04-15T19:42:10.985Z,45.23
2023-04-15T19:44:50.336Z,45.04
2023-04-15T19:47:17.743Z,44.74
2023-04-15T19:49:50.926Z,44.77
2023-04-15T19:52:29.916Z,44.94
2023-04-15T19:55:00.530Z,44.53
2023-04-15T19:57:35.980Z,44.11
2023-04-15T20:00:08.065Z,44.30
2023-04-15T20:02:40.782Z,43.83
2023-04-15T20:05:17.495Z,43.86
2023-04-15T20:07:51.984Z,43.91
2023-04-15T20:10:31.059Z,43.49
2023-04-15T20:13:06.499Z,43.05
2023-04-15T20:15:43.010Z,43.29
2023-04-15T20:18:16.264Z,43.45
2023-04-15T20:20:47.781Z,42.28
2023-04-15T20:23:14.989Z,42.59
2023-04-15T20:25:42.765Z,42.77
2023-04-15T20:28:10.239Z,42.70
2023-04-15T20:30:39.597Z,43.72
2023-04-15T20:33:11.688Z,43.53
2023-04-15T20:35:41.275Z,43.41
2023-04-15T20:38:11.862Z,44.07
2023-04-15T20:40:41.600Z,43.89
2023-04-15T20:43:11.258Z,43.47
2023-04-15T20:45:39.301Z,43.99
2023-04-15T20:48:07.295Z,44.17
2023-04-15T20:50:39.331Z,44.34
2023-04-15T20:53:06.575Z,43.85
2023-04-15T20:55:34.207Z,44.42
2023-04-15T20:58:04.593Z,44.97
2023-04-15T21:00:35.140Z,44.83
2023-04-15T21:03:06.192Z,45.37
2023-04-15T21:08:34.787Z,45.91
2023-04-15T21:11:04.315Z,46.21
2023-04-15T21:13:35.685Z,46.32
2023-04-15T21:16:14.618Z,46.29
2023-04-15T21:18:56.181Z,45.99
2023-04-15T21:21:28.906Z,46.01
2023-04-15T21:24:00.065Z,46.01
2023-04-15T21:26:32.080Z,45.86
2023-04-15T21:29:22.023Z,46.05
2023-04-15T21:31:59.120Z,46.33
2023-04-15T21:34:34.206Z,45.98
2023-04-15T21:37:04.226Z,46.03
2023-04-15T21:39:36.782Z,45.74
2023-04-15T21:42:16.484Z,45.88
2023-04-15T21:44:46.862Z,45.70
2023-04-15T21:47:18.249Z,46.20
2023-04-15T21:50:08.416Z,45.75
2023-04-15T21:52:58.461Z,45.85
2023-04-15T21:55:32.642Z,45.20
2023-04-15T21:58:00.648Z,45.21
2023-04-15T22:00:40.957Z,45.21
2023-04-15T22:03:16.460Z,45.51
2023-04-15T22:05:53.169Z,45.38
2023-04-15T22:08:38.634Z,45.23
2023-04-15T22:11:28.237Z,45.57
2023-04-15T22:14:10.607Z,45.52
2023-04-15T22:16:43.493Z,45.08
2023-04-15T22:19:19.218Z,45.47
2023-04-15T22:21:51.774Z,45.72
2023-04-15T22:24:34.309Z,45.84
2023-04-15T22:27:16.841Z,45.35
2023-04-15T22:29:50.936Z,45.22
2023-04-15T22:32:30.980Z,44.95
2023-04-15T22:35:01.825Z,44.88
2023-04-15T22:37:45.430Z,45.71
2023-04-15T22:40:14.202Z,45.69
2023-04-15T22:42:41.894Z,45.30
2023-04-15T22:45:09.954Z,45.24
2023-04-15T22:47:51.336Z,44.97
2023-04-15T22:50:18.812Z,45.44
2023-04-15T22:52:52.514Z,45.13
2023-04-15T22:55:20.053Z,45.61
2023-04-15T22:57:50.063Z,45.43
2023-04-15T23:00:24.264Z,45.34
2023-04-15T23:03:11.362Z,45.15
2023-04-15T23:05:43.210Z,44.94
2023-04-15T23:08:14.514Z,45.51
2023-04-15T23:10:46.117Z,44.98
2023-04-15T23:13:13.664Z,44.90
2023-04-15T23:15:41.257Z,45.77
2023-04-15T23:18:08.738Z,45.41
2023-04-15T23:20:39.262Z,45.24
2023-04-15T23:23:06.593Z,45.33
2023-04-15T23:25:33.979Z,45.03
2023-04-15T23:28:01.886Z,45.10
2023-04-15T23:30:29.315Z,45.15
2023-04-15T23:32:58.481Z,45.22
2023-04-15T23:35:29.816Z,45.53
2023-04-15T23:37:57.414Z,45.28
2023-04-15T23:40:24.761Z,44.86
2023-04-15T23:42:52.207Z,45.36
2023-04-15T23:45:24.770Z,45.26
2023-04-15T23:47:54.146Z,45.68
2023-04-15T23:50:21.417Z,45.48
2023-04-15T23:52:52.048Z,45.76
2023-04-15T23:55:21.947Z,45.77
2023-04-15T23:57:56.773Z,45.58
